Martin, GA

5:13 PM EDT on May 25, 2015 (GMT -0400)
TUGALOO RIVER | | Change Station
CLOSE
Current Station
Personal Weather Stations
Location: OCONEE, SC
Elevation: 665 ft
Nearby Weather Stations

Elev 665 ft 34.58 °N, 83.14 °W | Updated 3 minutes ago

대체로 흐림
대체로 흐림
80.8 °F
Feels Like 83 °F
N
0.0
바람 Variable 바람 from 남동
Gusts 0.0 mph

오늘
High -- | Low -- °F
--% Chance of Precip.
어제
High -- | Low -- °F
Precip. -- 인치
6:23 AM 8:35 PM
상현달, 51% visible
기압 30.25 인치
가시도 10.0 마일
구름 대체로 맑음 3600 ft
대체로 맑음 4500 ft
흐림 7000 ft
열지수 83 °F
이슬점 66 °F
습도 60%
Rainfall 0.00 인치
Snow Depth Not available.
자외선 지수 2 out of 12
Pollen 4.50 out of 12
에어 품질 Not available.
Flu Activity Sporadic
METAR KTOC 252055Z AUTO 10003KT 10SM SCT036 SCT045 OVC070 27/17 A3025 RMK AO2 T02670174

More Conditions Fewer Conditions

기압 30.25 인치
가시도 10.0 마일
구름 대체로 맑음 3600 ft
대체로 맑음 4500 ft
흐림 7000 ft
열지수 83 °F
이슬점 66 °F
습도 60%
Rainfall 0.00 인치
Snow Depth Not available.
자외선 지수 2 out of 12
Pollen 4.50 out of 12
에어 품질 Not available.
Flu Activity Sporadic
METAR KTOC 252055Z AUTO 10003KT 10SM SCT036 SCT045 OVC070 27/17 A3025 RMK AO2 T02670174

More Conditions Fewer Conditions

10-Day Weather Forecast

Almanac

천문

May. 25, 2015 Rise Set
Actual Time
Civil Twilight
Nautical Twilight
Astronomical Twilight
Moon
Length Of Visible Light
낮 길이
Tomorrow will be .
, % of the Moon is Illuminated

Today's Extremes

State Highs State Lows

Community

WunderPhotos

Upload Photos

1,824,135 photos uploaded!

WunderBlogs® & News

Nearby

에어 품질

  에어 품질 AQ Index Pollutant
Not available.

Snow Depth

Station Depth Elevation

Earthquake Activity

City Distance Mag. Time & Date
Minimum magnitude displayed is 2.5.

Coastal Water Temperatures

장소 기온

Stations

Nearby Weather Stations

Station Location Temp 풍속냉각지수 이슬점 습도 바람 Precip. Elev 업데이트 시각 Type